createdAt,value
2019-01-25T00:04:10.608Z,25.10
2019-01-25T00:08:28.893Z,28.90
2019-01-25T00:12:47.310Z,25.50
2019-01-25T00:17:06.007Z,27.50
2019-01-25T00:21:24.206Z,27.33
2019-01-25T00:25:42.396Z,27.03
2019-01-25T00:30:00.400Z,27.93
2019-01-25T00:34:18.555Z,26.90
2019-01-25T00:38:37.119Z,28.63
2019-01-25T00:42:55.171Z,23.07
2019-01-25T00:47:13.329Z,22.90
2019-01-25T00:51:31.897Z,27.50
2019-01-25T00:55:49.978Z,27.07
2019-01-25T01:00:19.642Z,27.50
2019-01-25T01:04:38.251Z,31.00
2019-01-25T01:08:56.412Z,35.30
2019-01-25T01:13:14.590Z,26.10
2019-01-25T01:17:32.783Z,34.77
2019-01-25T01:21:50.996Z,33.63
2019-01-25T01:26:09.226Z,32.47
2019-01-25T01:30:27.434Z,25.83
2019-01-25T01:34:45.557Z,30.20
2019-01-25T01:39:04.587Z,33.97
2019-01-25T01:43:22.889Z,40.10
2019-01-25T01:47:41.027Z,36.17
2019-01-25T01:51:59.479Z,32.50
2019-01-25T01:56:17.762Z,37.47
2019-01-25T02:00:35.837Z,34.70
2019-01-25T02:04:54.092Z,45.40
2019-01-25T02:09:12.697Z,33.67
2019-01-25T02:13:30.914Z,29.80
2019-01-25T02:17:49.598Z,26.17
2019-01-25T02:22:07.705Z,34.00
2019-01-25T02:26:25.796Z,32.63
2019-01-25T02:30:43.945Z,37.80
2019-01-25T02:35:02.112Z,36.67
2019-01-25T02:39:20.509Z,37.60
2019-01-25T02:43:38.871Z,31.07
2019-01-25T02:47:57.096Z,34.93
2019-01-25T02:52:15.776Z,35.47
2019-01-25T02:56:34.020Z,35.20
2019-01-25T03:00:52.276Z,33.80
2019-01-25T03:05:11.472Z,30.47
2019-01-25T03:09:29.982Z,33.60
2019-01-25T03:13:48.236Z,26.97
2019-01-25T03:18:06.949Z,34.53
2019-01-25T03:22:25.143Z,30.97
2019-01-25T03:26:43.278Z,34.10
2019-01-25T03:31:01.398Z,33.77
2019-01-25T03:35:21.810Z,42.93
2019-01-25T03:39:40.020Z,33.60
2019-01-25T03:43:58.421Z,37.17
2019-01-25T03:48:16.752Z,35.73
2019-01-25T03:52:34.804Z,30.97
2019-01-25T03:56:52.977Z,37.10
2019-01-25T04:01:11.041Z,27.00
2019-01-25T04:05:29.714Z,36.20
2019-01-25T04:09:47.808Z,41.87
2019-01-25T04:14:06.244Z,34.07
2019-01-25T04:18:24.544Z,39.77
2019-01-25T04:22:42.695Z,38.77
2019-01-25T04:27:00.987Z,37.30
2019-01-25T04:31:19.168Z,36.27
2019-01-25T04:35:37.845Z,37.87
2019-01-25T04:39:55.984Z,30.97
2019-01-25T04:44:14.175Z,30.93
2019-01-25T04:48:32.354Z,39.93
2019-01-25T04:52:51.271Z,32.73
2019-01-25T04:57:09.480Z,32.60
2019-01-25T05:01:27.939Z,31.60
2019-01-25T05:05:46.709Z,34.03
2019-01-25T05:10:05.272Z,32.03
2019-01-25T05:14:23.829Z,30.13
2019-01-25T05:18:41.894Z,32.80
2019-01-25T05:23:01.700Z,33.37
2019-01-25T05:27:19.912Z,33.77
2019-01-25T05:31:38.170Z,31.27
2019-01-25T05:35:56.339Z,36.77
2019-01-25T05:40:21.820Z,35.20
2019-01-25T05:44:39.873Z,29.90
2019-01-25T05:48:58.056Z,33.30
2019-01-25T05:53:16.216Z,40.67
2019-01-25T05:57:34.367Z,34.23
2019-01-25T06:01:52.737Z,32.57
2019-01-25T06:06:11.400Z,36.53
2019-01-25T06:10:34.160Z,31.30
2019-01-25T06:14:52.385Z,33.90
2019-01-25T06:19:10.679Z,31.37
2019-01-25T06:23:29.022Z,30.03
2019-01-25T06:27:47.201Z,33.87
2019-01-25T06:32:06.061Z,29.00
2019-01-25T06:36:24.221Z,31.37
2019-01-25T06:40:42.353Z,30.03
2019-01-25T06:45:00.994Z,26.77
2019-01-25T06:49:19.185Z,24.77
2019-01-25T06:53:37.407Z,30.07
2019-01-25T06:58:03.170Z,28.20
2019-01-25T07:02:26.343Z,29.80
2019-01-25T07:06:44.433Z,32.47
2019-01-25T07:11:03.804Z,27.47
2019-01-25T07:15:24.149Z,28.67
2019-01-25T07:19:42.259Z,30.90
2019-01-25T07:24:00.341Z,28.00
2019-01-25T07:28:18.461Z,29.03
2019-01-25T07:32:36.628Z,26.77
2019-01-25T07:36:56.516Z,28.53
2019-01-25T07:41:14.909Z,30.00
2019-01-25T07:45:33.059Z,29.87
2019-01-25T07:49:51.364Z,27.07
2019-01-25T07:54:09.518Z,27.43
2019-01-25T07:58:28.180Z,30.63
2019-01-25T08:02:46.250Z,28.40
2019-01-25T08:07:05.032Z,28.93
2019-01-25T08:11:23.413Z,30.57
2019-01-25T08:15:41.726Z,25.47
2019-01-25T08:19:59.919Z,26.17
2019-01-25T08:24:18.150Z,35.07
2019-01-25T08:28:36.676Z,25.57
2019-01-25T08:32:54.872Z,26.00
2019-01-25T08:37:14.722Z,25.20
2019-01-25T08:41:34.268Z,25.40
2019-01-25T08:45:52.463Z,24.00
2019-01-25T08:50:16.048Z,24.43
2019-01-25T08:54:34.091Z,29.60
2019-01-25T08:58:52.639Z,26.53
2019-01-25T09:03:10.884Z,23.33
2019-01-25T09:07:29.251Z,18.97
2019-01-25T09:11:47.770Z,23.40
2019-01-25T09:16:06.285Z,28.33
2019-01-25T09:20:24.629Z,24.23
2019-01-25T09:24:42.755Z,21.23
2019-01-25T09:29:01.361Z,26.70
2019-01-25T09:33:19.823Z,20.10
2019-01-25T09:37:38.144Z,25.77
2019-01-25T09:41:56.747Z,24.93
2019-01-25T09:46:14.820Z,19.57
2019-01-25T09:50:33.292Z,27.53
2019-01-25T09:54:51.404Z,26.00
2019-01-25T09:59:09.533Z,25.87
2019-01-25T10:03:27.655Z,24.97
2019-01-25T10:07:46.156Z,19.53
2019-01-25T10:12:04.933Z,18.47
2019-01-25T10:16:23.364Z,20.00
2019-01-25T10:20:41.607Z,19.70
2019-01-25T10:24:59.825Z,20.73
2019-01-25T10:29:17.904Z,21.60
2019-01-25T10:33:36.159Z,18.30
2019-01-25T10:37:54.902Z,22.57
2019-01-25T10:42:12.946Z,18.30
2019-01-25T10:46:31.097Z,18.50
2019-01-25T10:50:49.397Z,17.30
2019-01-25T10:55:08.609Z,17.60
2019-01-25T10:59:27.694Z,20.20
2019-01-25T11:03:46.770Z,14.60
2019-01-25T11:08:05.043Z,16.10
2019-01-25T11:12:23.099Z,16.10
2019-01-25T11:16:41.193Z,16.50
2019-01-25T11:20:59.496Z,14.87
2019-01-25T11:25:25.136Z,12.50
2019-01-25T11:29:43.259Z,18.90
2019-01-25T11:34:01.728Z,16.43
2019-01-25T11:38:20.030Z,16.20
2019-01-25T11:42:38.231Z,16.20
2019-01-25T11:46:56.387Z,15.53
2019-01-25T11:51:14.527Z,13.40
2019-01-25T11:55:32.896Z,15.47
2019-01-25T11:59:51.472Z,13.00
2019-01-25T12:04:09.653Z,12.37
2019-01-25T12:08:27.916Z,9.73
2019-01-25T12:12:47.448Z,15.70
2019-01-25T12:17:05.739Z,11.47
2019-01-25T12:21:23.772Z,11.87
2019-01-25T12:25:41.998Z,13.73
2019-01-25T12:30:00.021Z,15.17
2019-01-25T12:34:18.429Z,15.03
2019-01-25T12:38:36.737Z,13.07
2019-01-25T12:42:54.912Z,13.77
2019-01-25T12:47:13.088Z,12.33
2019-01-25T12:51:43.283Z,14.33
2019-01-25T12:56:01.401Z,14.23
2019-01-25T13:00:23.750Z,11.63
2019-01-25T13:04:41.793Z,9.63
2019-01-25T13:09:00.121Z,15.67
2019-01-25T13:13:18.799Z,14.97
2019-01-25T13:17:37.132Z,11.30
2019-01-25T13:21:55.319Z,10.10
2019-01-25T13:26:13.836Z,14.87
2019-01-25T13:30:32.077Z,18.70
2019-01-25T13:34:51.655Z,21.23
2019-01-25T13:39:11.334Z,20.60
2019-01-25T13:43:31.106Z,16.03
2019-01-25T13:47:49.976Z,19.37
2019-01-25T13:52:08.135Z,17.57
2019-01-25T13:56:31.601Z,17.13
2019-01-25T14:00:50.807Z,18.73
2019-01-25T14:05:09.583Z,13.10
2019-01-25T14:09:28.058Z,12.77
2019-01-25T14:13:47.143Z,13.33
2019-01-25T14:18:05.933Z,14.00
2019-01-25T14:22:24.498Z,17.30
2019-01-25T14:26:42.774Z,12.50
2019-01-25T14:31:00.800Z,13.53
2019-01-25T14:35:18.948Z,13.67
2019-01-25T14:39:37.087Z,16.43
2019-01-25T14:43:55.572Z,14.10
2019-01-25T14:48:15.566Z,14.83
2019-01-25T14:52:34.549Z,13.53
2019-01-25T14:56:53.118Z,15.30
2019-01-25T15:01:11.342Z,13.60
2019-01-25T15:05:29.654Z,12.20
2019-01-25T15:09:48.591Z,7.10
2019-01-25T15:14:07.897Z,11.40
2019-01-25T15:18:27.081Z,12.40
2019-01-25T15:22:45.428Z,10.60
2019-01-25T15:27:03.588Z,11.93
2019-01-25T15:31:22.318Z,9.43
2019-01-25T15:35:40.495Z,9.00
2019-01-25T15:39:59.737Z,9.97
2019-01-25T15:44:17.935Z,5.73
2019-01-25T15:48:36.036Z,7.50
2019-01-25T15:52:54.335Z,5.43
2019-01-25T15:57:13.127Z,8.30
2019-01-25T16:01:31.380Z,7.13
2019-01-25T16:05:49.451Z,7.63
2019-01-25T16:10:10.581Z,6.63
2019-01-25T16:14:29.216Z,7.40
2019-01-25T16:18:47.286Z,8.63
2019-01-25T16:23:05.928Z,9.17
2019-01-25T16:27:24.256Z,8.57
2019-01-25T16:31:42.490Z,6.80
2019-01-25T16:36:01.157Z,6.30
2019-01-25T16:40:21.072Z,6.40
2019-01-25T16:44:39.202Z,10.97
2019-01-25T16:48:57.688Z,17.93
2019-01-25T16:53:17.172Z,15.87
2019-01-25T16:57:35.663Z,11.10
2019-01-25T17:01:53.784Z,14.47
2019-01-25T17:06:12.564Z,14.90
2019-01-25T17:10:30.801Z,16.43
2019-01-25T17:14:48.938Z,15.63
2019-01-25T17:19:07.368Z,14.17
2019-01-25T17:23:25.550Z,14.87
2019-01-25T17:27:44.536Z,12.27
2019-01-25T17:32:03.020Z,13.10
2019-01-25T17:36:21.151Z,14.83
2019-01-25T17:40:46.879Z,15.90
2019-01-25T17:45:06.580Z,15.27
2019-01-25T17:49:25.056Z,11.07
2019-01-25T17:53:44.626Z,13.13
2019-01-25T17:58:08.128Z,9.87
2019-01-25T18:02:25.495Z,12.93
2019-01-25T18:06:44.565Z,14.07
2019-01-25T18:11:02.821Z,11.70
2019-01-25T18:15:21.649Z,12.77
2019-01-25T18:19:39.636Z,12.90
2019-01-25T18:23:58.262Z,8.03
2019-01-25T18:28:28.594Z,9.87
2019-01-25T18:32:46.818Z,8.27
2019-01-25T18:37:04.950Z,7.00
2019-01-25T18:41:23.392Z,8.00
2019-01-25T18:45:41.458Z,6.63
2019-01-25T18:49:59.632Z,5.40
2019-01-25T18:54:19.851Z,6.37
2019-01-25T18:58:38.153Z,7.30
2019-01-25T19:02:57.284Z,9.57
2019-01-25T19:07:15.686Z,6.47
2019-01-25T19:11:33.859Z,7.60
2019-01-25T19:15:51.997Z,7.17
2019-01-25T19:20:13.101Z,5.97
2019-01-25T19:24:32.152Z,6.33
2019-01-25T19:28:50.272Z,6.50
2019-01-25T19:33:08.603Z,6.97
2019-01-25T19:37:26.797Z,5.87
2019-01-25T19:41:44.958Z,5.77
2019-01-25T19:46:03.229Z,8.30
2019-01-25T19:50:22.565Z,9.40
2019-01-25T19:54:41.147Z,7.13
2019-01-25T19:58:59.834Z,6.50
2019-01-25T20:03:18.416Z,6.97
2019-01-25T20:07:37.076Z,8.00
2019-01-25T20:11:55.519Z,8.90
2019-01-25T20:16:14.790Z,10.57
2019-01-25T20:20:34.460Z,7.67
2019-01-25T20:24:53.633Z,9.10
2019-01-25T20:29:11.803Z,6.33
2019-01-25T20:33:30.211Z,8.50
2019-01-25T20:37:48.448Z,5.90
2019-01-25T20:42:06.933Z,6.70
2019-01-25T20:46:25.462Z,5.53
2019-01-25T20:50:43.713Z,5.00
2019-01-25T20:55:02.080Z,5.20
2019-01-25T20:59:20.959Z,5.80
2019-01-25T21:03:39.104Z,5.90
2019-01-25T21:07:57.262Z,7.23
2019-01-25T21:12:16.546Z,5.30
2019-01-25T21:16:34.736Z,7.17
2019-01-25T21:20:53.008Z,4.10
2019-01-25T21:25:11.713Z,5.43
2019-01-25T21:29:29.900Z,4.10
2019-01-25T21:33:48.148Z,4.60
2019-01-25T21:38:07.905Z,3.57
2019-01-25T21:42:26.103Z,6.47
2019-01-25T21:46:44.314Z,4.20
2019-01-25T21:51:02.950Z,3.10
2019-01-25T21:55:21.277Z,5.40
2019-01-25T21:59:39.323Z,5.50
2019-01-25T22:03:57.849Z,6.80
2019-01-25T22:08:16.003Z,4.70
2019-01-25T22:12:34.134Z,4.40
2019-01-25T22:16:52.349Z,5.77
2019-01-25T22:21:11.280Z,3.20
2019-01-25T22:25:29.595Z,5.87
2019-01-25T22:29:47.622Z,5.40
2019-01-25T22:34:06.083Z,4.97
2019-01-25T22:38:24.320Z,4.60
2019-01-25T22:42:43.007Z,4.80
2019-01-25T22:47:01.043Z,4.90
2019-01-25T22:51:19.091Z,7.07
2019-01-25T22:55:37.217Z,5.57
2019-01-25T22:59:55.455Z,6.27
2019-01-25T23:05:25.469Z,4.80
2019-01-25T23:10:13.983Z,7.07
2019-01-25T23:14:32.603Z,5.27
2019-01-25T23:18:50.707Z,5.30
2019-01-25T23:23:08.666Z,7.20
2019-01-25T23:27:26.754Z,6.70
2019-01-25T23:31:44.939Z,6.80
2019-01-25T23:36:03.185Z,5.10
2019-01-25T23:40:21.564Z,5.43
2019-01-25T23:44:39.719Z,6.70
2019-01-25T23:48:57.924Z,8.20
2019-01-25T23:53:15.938Z,3.87
2019-01-25T23:57:34.128Z,5.30
